KJRB/JRB METAR and TAF weather

Enter ICAO airport designator
Station Type Date Time Source
KJRB METAR 2020/09/18 18:56 UTC NOAA

KJRB 181856Z AUTO 08007G17KT 040V150 10SM CLR 23/11 A2996 RMK AO2 PK WND 28035/1840 SLP145 T02330111


Station Type Date Time Source
KJRB Decoded METAR 2020/09/18 18:56 UTC NOAA

Station name not available
Sep 18, 2020 - 02:56 PM EDT / 2020.09.18 1856 UTC
Wind: from the E (080 degrees) at 8 MPH (7 KT) gusting to 20 MPH (17 KT) (direction variable):0
Visibility: 10 mile(s):0
Sky conditions: clear
Temperature: 73.9 F (23.3 C)
Dew Point: 52.0 F (11.1 C)
Relative Humidity: 46%
Pressure (altimeter): 29.96 in. Hg (1014 hPa)
ob: KJRB 181856Z AUTO 08007G17KT 040V150 10SM CLR 23/11 A2996 RMK AO2 PK WND 28035/1840 SLP145 T02330111
cycle: 19

Station Type Date Time Source
KJRB TAF UTC NOAA

Error!

Example: see airport list